Pesotum, Illinois
Current Conditions -  °F | °C
As of 1:53 PM on Friday 28 Nov 2014 (Local Time) from KCMI Reporting Station
Clear Clear  
Wind Chill: 28°   Ceiling: Unl
Heat Index: 38°   Visibility: 9mi
Dew Point: 30°   Wind: 20mph
Humidity: 73%   Direction: 180°S
Pressure: 30.05"   Gusts: 28mph
Location:  39.91°N, 88.27°W
Report Text: KCMI 281953Z 18017G24KT 9SM CLR 03/M01 A3005 RMK AO2 PK WND 17027/1855 SLP184 T00331011 $
Loading
Personal Weather Stations






























Interactive Weather Map New forecast layout! Learn more

10-Day Weather Forecast

Advertisements
Track Severe Weather on mobile